AirNav   Pilot Hours Calculator
 
 996 users online  

10G Holmes County Airport
Millersburg, Ohio, USA

GOING TO MILLERSBURG?


FAA INFORMATION EFFECTIVE 26 JANUARY 2023

Location

FAA Identifier: 10G
Lat/Long: 40-32-12.1245N 081-57-21.3882W
40-32.202075N 081-57.356470W
40.5367013,-81.9559412
(estimated)
Elevation: 1226.5 ft. / 373.8 m (surveyed)
Variation: 08W (2015)
From city: 2 miles SW of MILLERSBURG, OH
Time zone: UTC -5 (UTC -4 during Daylight Saving Time)
Zip code: 44654

Airport Operations

Airport use: Open to the public
Activation date: 03/1962
Control tower: no
ARTCC: INDIANAPOLIS CENTER
FSS: CLEVELAND FLIGHT SERVICE STATION
NOTAMs facility: CLE (NOTAM-D service available)
Attendance: MON-FRI 0800-1700, ALL SAT 0900-1700, ALL SUN 1200-1700
UNATNDD MAJ HOLS.
Wind indicator: lighted
Segmented circle: no
Lights: ACTVT MIRL RY 09/27, PAPI RY 27 AND REIL RYS 09 & 27 - 123.4.
Beacon: white-green (lighted land airport)
Operates sunset to sunrise.

Airport Communications

CTAF/UNICOM: 123.0
WX AWOS-3: 128.325 (330-674-6279)
WX AWOS-3 at I40 (14 nm S): 118.875 (740-295-7370)
  • APCH/DEP SVC PRVDD BY INDIANAPOLIS ARTCC ON FREQS 124.45/370.9 (ZANESVILLE RCAG).

Nearby radio navigation aids

VOR radial/distance  VOR name  Freq  Var
BSVr247/26.8BRIGGS VOR/DME112.4004W
MFDr128/35.1MANSFIELD VORTAC108.8003W
ZZVr001/35.9ZANESVILLE VOR/DME114.9506W
APEr057/37.0APPLETON VORTAC116.7006W

Airport Services

Fuel available: 100LL JET-A+
Parking: hangars and tiedowns
Airframe service: MAJOR
Powerplant service: MAJOR
Bottled oxygen: HIGH
Bulk oxygen: NONE

Runway Information

Runway 9/27

Dimensions: 4400 x 75 ft. / 1341 x 23 m
Surface: asphalt, in fair condition
Weight bearing capacity: 
Single wheel: 14.0
Double wheel: 25.0
Runway edge lights: medium intensity
RUNWAY 9  RUNWAY 27
Latitude: 40-32.182148N40-32.222002N
Longitude: 081-57.830652W081-56.882287W
Elevation: 1226.5 ft.1183.2 ft.
Traffic pattern: leftleft
Runway heading: 095 magnetic, 087 true275 magnetic, 267 true
Markings: nonprecision, in fair conditionnonprecision, in fair condition
Visual slope indicator: 2-light PAPI on left (3.00 degrees glide path)
Runway end identifier lights: yesyes
Touchdown point: yes, no lightsyes, no lights
Obstructions: 74 ft. trees, 1537 ft. from runway, 224 ft. right of centerline, 18:1 slope to clearnone

Airport Ownership and Management from official FAA records

Ownership: Publicly-owned
Owner: HOLMES CO ARPT AUTH
10 S CLAY ST
MILLERSBURG, OH 44654-1329
Phone 330-674-8625
Manager: LARRY CLARK
4501 TOWNSHIP ROAD 307
MILLERSBURG, OH 44654-9656
Phone 330-674-0674
CELL 330-231-3715.

Airport Operational Statistics

Aircraft based on the field: 10
Single engine airplanes: 8
Multi engine airplanes: 1
Jet airplanes: 1
    
Aircraft operations: avg 59/day *
70% local general aviation
23% transient general aviation
5% military
2% air taxi
* for 12-month period ending 07 September 2022

Additional Remarks

DEER ON & INVOF ARPT.
FOR CD CTC INDIANAPOLIS ARTCC AT 317-247-2411.

Instrument Procedures

NOTE: All procedures below are presented as PDF files. If you need a reader for these files, you should download the free Adobe Reader.

NOT FOR NAVIGATION. Please procure official charts for flight.
FAA instrument procedures published for use from 26 January 2023 at 0901Z to 23 February 2023 at 0900z.

 
IAPs - Instrument Approach Procedures
RNAV (GPS) RWY 09 **CHANGED**   download
RNAV (GPS) RWY 27 **CHANGED**   download
NOTE: Special Alternate Minimums apply **NEW**   download (168KB)
NOTE: Special Take-Off Minimums/Departure Procedures apply   download (234KB)

Other nearby airports with instrument procedures:

I40 - Richard Downing Airport (14 nm S)
KBJJ - Wayne County Airport (21 nm N)
KPHD - Harry Clever Field Airport (25 nm E)
3G4 - Ashland County Airport (26 nm NW)
4I3 - Knox County Airport (29 nm SW)
 
Loc | Ops | Rwys | IFR | FBO | Links
Com | Nav | Svcs | Stats | Notes
Area around 10G (Holmes County Airport)
 
Road maps at: MapQuest Bing Google
 
Aerial photo
WARNING: Photo may not be current or correct
Aerial photo of 10G (Holmes County Airport)
Do you have a better or more recent aerial photo of Holmes County Airport that you would like to share? If so, please send us your photo.

 
Sectional chart

 
Airport distance calculator
Flying to Holmes County Airport? Find the distance to fly.

From to 10G

Sunrise and sunset
Times for 28-Jan-2023
 Local
(UTC-5)
 Zulu
(UTC)
Morning civil twilight07:1312:13
Sunrise07:4212:42
Sunset17:4022:40
Evening civil twilight18:0923:09

Current date and time
Zulu (UTC)  28-Jan-2023 23:49:54
Local (UTC-5)  28-Jan-2023 18:49:54
 
METAR
KBJJ 
20nm N 
282256Z AUTO 12004KT 10SM CLR 02/00 A3018 RMK AO2 SLP230 T00220000
KPHD 
25nm E 
282253Z AUTO 12003KT 10SM CLR 07/00 A3020 RMK AO2 SLP232 T00670000
K4I3 
29nm SW 
282335Z AUTO 00000KT 10SM SCT090 05/00 A3017 RMK AO2
KMFD 
31nm NW 
282252Z 13005KT 10SM CLR 04/M01 A3015 RMK AO2 SLP221 T00391006
KCAK 
32nm NE 
282251Z 17004KT 10SM SCT050 SCT090 BKN160 05/M01 A3018 RMK AO2 SLP231 T00501011 $
KZZV 
35nm S 
282253Z AUTO 16005KT 10SM CLR 08/M02 A3019 RMK AO2 SLP226 T00831017
KAKR 
37nm NE 
282254Z AUTO 00000KT 10SM BKN055 05/M02 A3018 RMK AO2 SLP226 T00501022
KCDI 
38nm SE 
282335Z AUTO 00000KT 10SM CLR 02/00 A3020 RMK AO2 T00240001
KVTA 
39nm SW 
282254Z AUTO 13004KT 10SM CLR 09/00 A3017 RMK AO2 SLP219 T00890000
TAF
KMFD 
31nm NW 
281725Z 2818/2918 22008KT P6SM BKN100 FM290500 19010KT P6SM VCSH BKN045 FM290800 21014G20KT 5SM -SHRA OVC025 FM291100 21015G20KT 2SM -RA BR OVC015 FM291400 21013KT 2SM -RA BR OVC008
KCAK 
32nm NE 
281725Z 2818/2918 24008KT P6SM FEW150 BKN250 FM290700 19010KT P6SM VCSH BKN050 FM291000 20011KT 5SM -SHRA BR OVC025 FM291200 20012KT 2SM -RA BR OVC015 FM291600 21012KT 2SM -RA BR OVC008
KZZV 
35nm S 
281724Z 2818/2918 22010KT P6SM BKN150 FM290500 18005KT P6SM BKN090 WS020/21040KT FM291000 19008KT 3SM -RA BR OVC025 FM291600 21014G25KT 2SM -RA OVC006
NOTAMs
Click for the latest NOTAMs
NOTAMs are issued by the DoD/FAA and will open in a separate window not controlled by AirNav.

 

 
 

FBO, Fuel Providers, and Aircraft Ground Support

  
 Business Name 
 
 Contact 
 
 Services / Description 
 
Fuel Prices
 
Comments
  
Professionals Aviation Company Inc. 330-674-0674
no information available

If you are affiliated with Professionals Aviation Company Inc. and would like to show here your services, contact info, web link, logo, and more, click here
100LL Jet A
FS $7.20 $6.45 
 Updated 16-Jan-2023
 
   5 read write
FS=Full service
Update Fuel Prices
 

Would you like to see your business listed on this page?

 If your business provides an interesting product or service to pilots, flight crews, aircraft, or users of the Holmes County Airport, you should consider listing it here.  To start the listing process, click on the button below
 
Add a business
 

Other Pages about Holmes County Airport

Update a link
 
Copyright © AirNav, LLC. All rights reserved. Privacy Policy  Contact